sensor_id;sensor_type;location;lat;lon;timestamp;pressure;altitude;pressure_sealevel;temperature;humidity
10852;BME280;5479;52.046;6.314;2023-07-31T00:02:23;100904.63;;;15.36;100.00
10852;BME280;5479;52.046;6.314;2023-07-31T00:04:52;100900.50;;;15.32;100.00
10852;BME280;5479;52.046;6.314;2023-07-31T00:07:20;100885.13;;;15.35;100.00
10852;BME280;5479;52.046;6.314;2023-07-31T00:09:49;100882.06;;;15.40;100.00
10852;BME280;5479;52.046;6.314;2023-07-31T00:12:17;100886.47;;;15.41;100.00
10852;BME280;5479;52.046;6.314;2023-07-31T00:14:47;100877.84;;;15.37;100.00
10852;BME280;5479;52.046;6.314;2023-07-31T00:17:16;100875.53;;;15.33;100.00
10852;BME280;5479;52.046;6.314;2023-07-31T00:19:44;100871.50;;;15.38;100.00
10852;BME280;5479;52.046;6.314;2023-07-31T00:22:13;100876.75;;;15.40;100.00
10852;BME280;5479;52.046;6.314;2023-07-31T00:24:43;100874.19;;;15.38;100.00
10852;BME280;5479;52.046;6.314;2023-07-31T00:27:13;100864.97;;;15.42;100.00
10852;BME280;5479;52.046;6.314;2023-07-31T00:29:41;100873.50;;;15.47;100.00
10852;BME280;5479;52.046;6.314;2023-07-31T00:32:11;100873.84;;;15.43;100.00
10852;BME280;5479;52.046;6.314;2023-07-31T00:34:39;100858.53;;;15.45;100.00
10852;BME280;5479;52.046;6.314;2023-07-31T00:37:19;100870.31;;;15.42;100.00
10852;BME280;5479;52.046;6.314;2023-07-31T00:39:49;100859.41;;;15.45;100.00
10852;BME280;5479;52.046;6.314;2023-07-31T00:42:17;100859.91;;;15.50;100.00
10852;BME280;5479;52.046;6.314;2023-07-31T00:44:45;100848.72;;;15.45;100.00
10852;BME280;5479;52.046;6.314;2023-07-31T00:47:16;100842.09;;;15.51;100.00
10852;BME280;5479;52.046;6.314;2023-07-31T00:49:44;100849.81;;;15.43;100.00
10852;BME280;5479;52.046;6.314;2023-07-31T00:52:13;100841.47;;;15.47;100.00
10852;BME280;5479;52.046;6.314;2023-07-31T00:54:43;100844.63;;;15.52;100.00
10852;BME280;5479;52.046;6.314;2023-07-31T00:57:11;100834.69;;;15.54;100.00
10852;BME280;5479;52.046;6.314;2023-07-31T00:59:40;100837.63;;;15.51;100.00
10852;BME280;5479;52.046;6.314;2023-07-31T01:02:08;100840.63;;;15.47;100.00
10852;BME280;5479;52.046;6.314;2023-07-31T01:04:37;100834.81;;;15.53;100.00
10852;BME280;5479;52.046;6.314;2023-07-31T01:07:11;100819.88;;;15.50;100.00
10852;BME280;5479;52.046;6.314;2023-07-31T01:09:45;100828.38;;;15.55;100.00
10852;BME280;5479;52.046;6.314;2023-07-31T01:12:16;100831.53;;;15.60;100.00
10852;BME280;5479;52.046;6.314;2023-07-31T01:15:02;100821.84;;;15.59;100.00
10852;BME280;5479;52.046;6.314;2023-07-31T01:17:32;100820.38;;;15.66;100.00
10852;BME280;5479;52.046;6.314;2023-07-31T01:20:04;100823.75;;;15.68;100.00
10852;BME280;5479;52.046;6.314;2023-07-31T01:23:01;100823.66;;;15.70;100.00
10852;BME280;5479;52.046;6.314;2023-07-31T01:25:59;100822.03;;;15.79;100.00
10852;BME280;5479;52.046;6.314;2023-07-31T01:28:35;100815.50;;;15.83;100.00
10852;BME280;5479;52.046;6.314;2023-07-31T01:31:07;100805.75;;;15.93;100.00
10852;BME280;5479;52.046;6.314;2023-07-31T01:33:36;100799.94;;;15.99;100.00
10852;BME280;5479;52.046;6.314;2023-07-31T01:36:05;100804.88;;;16.03;100.00
10852;BME280;5479;52.046;6.314;2023-07-31T01:38:33;100804.38;;;16.09;100.00
10852;BME280;5479;52.046;6.314;2023-07-31T01:41:03;100796.97;;;16.13;100.00
10852;BME280;5479;52.046;6.314;2023-07-31T01:43:31;100804.13;;;16.23;100.00
10852;BME280;5479;52.046;6.314;2023-07-31T01:46:06;100797.91;;;16.23;100.00
10852;BME280;5479;52.046;6.314;2023-07-31T01:48:34;100800.34;;;16.26;100.00
10852;BME280;5479;52.046;6.314;2023-07-31T01:51:03;100796.16;;;16.33;100.00
10852;BME280;5479;52.046;6.314;2023-07-31T01:53:31;100782.31;;;16.39;100.00
10852;BME280;5479;52.046;6.314;2023-07-31T01:56:00;100788.88;;;16.35;100.00
10852;BME280;5479;52.046;6.314;2023-07-31T01:58:29;100774.41;;;16.38;100.00
10852;BME280;5479;52.046;6.314;2023-07-31T02:00:57;100780.47;;;16.40;100.00
10852;BME280;5479;52.046;6.314;2023-07-31T02:03:25;100780.59;;;16.38;100.00
10852;BME280;5479;52.046;6.314;2023-07-31T02:05:54;100773.28;;;16.40;100.00
10852;BME280;5479;52.046;6.314;2023-07-31T02:08:23;100772.56;;;16.38;100.00
10852;BME280;5479;52.046;6.314;2023-07-31T02:10:51;100775.25;;;16.38;100.00
10852;BME280;5479;52.046;6.314;2023-07-31T02:13:19;100774.75;;;16.44;100.00
10852;BME280;5479;52.046;6.314;2023-07-31T02:15:49;100771.34;;;16.42;100.00
10852;BME280;5479;52.046;6.314;2023-07-31T02:18:18;100771.16;;;16.34;100.00
10852;BME280;5479;52.046;6.314;2023-07-31T02:20:49;100761.78;;;16.40;100.00
10852;BME280;5479;52.046;6.314;2023-07-31T02:23:17;100764.91;;;16.45;100.00
10852;BME280;5479;52.046;6.314;2023-07-31T02:25:46;100752.25;;;16.47;100.00
10852;BME280;5479;52.046;6.314;2023-07-31T02:28:14;100762.69;;;16.50;100.00
10852;BME280;5479;52.046;6.314;2023-07-31T02:30:44;100758.19;;;16.50;100.00
10852;BME280;5479;52.046;6.314;2023-07-31T02:33:14;100754.66;;;16.50;100.00
10852;BME280;5479;52.046;6.314;2023-07-31T02:35:43;100744.84;;;16.50;100.00
10852;BME280;5479;52.046;6.314;2023-07-31T02:38:17;100744.84;;;16.50;100.00
10852;BME280;5479;52.046;6.314;2023-07-31T02:40:45;100744.38;;;16.45;100.00
10852;BME280;5479;52.046;6.314;2023-07-31T02:43:17;100752.00;;;16.50;100.00
10852;BME280;5479;52.046;6.314;2023-07-31T02:45:51;100742.16;;;16.50;100.00
10852;BME280;5479;52.046;6.314;2023-07-31T02:48:20;100743.88;;;16.40;100.00
10852;BME280;5479;52.046;6.314;2023-07-31T02:50:55;100742.06;;;16.41;100.00
10852;BME280;5479;52.046;6.314;2023-07-31T02:53:23;100743.19;;;16.38;100.00
10852;BME280;5479;52.046;6.314;2023-07-31T02:55:52;100736.47;;;16.44;100.00
10852;BME280;5479;52.046;6.314;2023-07-31T02:58:22;100740.66;;;16.37;100.00
10852;BME280;5479;52.046;6.314;2023-07-31T03:00:50;100753.56;;;16.32;100.00
10852;BME280;5479;52.046;6.314;2023-07-31T03:03:18;100757.06;;;16.32;100.00
10852;BME280;5479;52.046;6.314;2023-07-31T03:05:47;100756.69;;;16.37;100.00
10852;BME280;5479;52.046;6.314;2023-07-31T03:08:15;100754.97;;;16.36;100.00
10852;BME280;5479;52.046;6.314;2023-07-31T03:10:43;100755.84;;;16.36;100.00
10852;BME280;5479;52.046;6.314;2023-07-31T03:13:11;100755.22;;;16.33;100.00
10852;BME280;5479;52.046;6.314;2023-07-31T03:15:41;100761.69;;;16.30;100.00
10852;BME280;5479;52.046;6.314;2023-07-31T03:18:08;100752.44;;;16.34;100.00
10852;BME280;5479;52.046;6.314;2023-07-31T03:20:37;100762.88;;;16.37;100.00
10852;BME280;5479;52.046;6.314;2023-07-31T03:23:06;100756.34;;;16.30;100.00
10852;BME280;5479;52.046;6.314;2023-07-31T03:25:34;100762.13;;;16.35;100.00
10852;BME280;5479;52.046;6.314;2023-07-31T03:28:03;100751.13;;;16.28;100.00
10852;BME280;5479;52.046;6.314;2023-07-31T03:30:35;100759.72;;;16.32;100.00
10852;BME280;5479;52.046;6.314;2023-07-31T03:33:04;100762.53;;;16.30;100.00
10852;BME280;5479;52.046;6.314;2023-07-31T03:35:32;100770.41;;;16.32;100.00
10852;BME280;5479;52.046;6.314;2023-07-31T03:38:00;100758.56;;;16.25;100.00
10852;BME280;5479;52.046;6.314;2023-07-31T03:40:34;100760.50;;;16.23;100.00
10852;BME280;5479;52.046;6.314;2023-07-31T03:43:03;100755.16;;;16.23;100.00
10852;BME280;5479;52.046;6.314;2023-07-31T03:45:31;100749.81;;;16.23;100.00
10852;BME280;5479;52.046;6.314;2023-07-31T03:47:59;100748.97;;;16.22;100.00
10852;BME280;5479;52.046;6.314;2023-07-31T03:50:27;100748.13;;;16.22;100.00
10852;BME280;5479;52.046;6.314;2023-07-31T03:52:55;100751.03;;;16.19;100.00
10852;BME280;5479;52.046;6.314;2023-07-31T03:55:26;100746.53;;;16.19;100.00
10852;BME280;5479;52.046;6.314;2023-07-31T03:57:55;100750.78;;;16.22;100.00
10852;BME280;5479;52.046;6.314;2023-07-31T04:00:24;100753.72;;;16.19;100.00
10852;BME280;5479;52.046;6.314;2023-07-31T04:02:52;100738.69;;;16.18;100.00
10852;BME280;5479;52.046;6.314;2023-07-31T04:05:20;100736.72;;;16.20;100.00
10852;BME280;5479;52.046;6.314;2023-07-31T04:07:48;100741.44;;;16.16;100.00
10852;BME280;5479;52.046;6.314;2023-07-31T04:10:19;100739.88;;;16.14;100.00
10852;BME280;5479;52.046;6.314;2023-07-31T04:12:48;100750.81;;;16.11;100.00
10852;BME280;5479;52.046;6.314;2023-07-31T04:15:17;100746.34;;;16.11;100.00
10852;BME280;5479;52.046;6.314;2023-07-31T04:17:45;100745.47;;;16.11;100.00
10852;BME280;5479;52.046;6.314;2023-07-31T04:20:14;100745.72;;;16.08;100.00
10852;BME280;5479;52.046;6.314;2023-07-31T04:22:41;100740.38;;;16.08;100.00
10852;BME280;5479;52.046;6.314;2023-07-31T04:25:09;100740.38;;;16.08;100.00
10852;BME280;5479;52.046;6.314;2023-07-31T04:27:40;100738.47;;;16.10;100.00
10852;BME280;5479;52.046;6.314;2023-07-31T04:30:08;100735.78;;;16.10;100.00
10852;BME280;5479;52.046;6.314;2023-07-31T04:32:38;100733.38;;;16.07;100.00
10852;BME280;5479;52.046;6.314;2023-07-31T04:35:06;100737.84;;;16.06;100.00
10852;BME280;5479;52.046;6.314;2023-07-31T04:37:34;100739.88;;;16.14;100.00
10852;BME280;5479;52.046;6.314;2023-07-31T04:40:03;100734.78;;;16.11;100.00
10852;BME280;5479;52.046;6.314;2023-07-31T04:42:31;100732.72;;;16.14;100.00
10852;BME280;5479;52.046;6.314;2023-07-31T04:44:59;100729.19;;;16.14;100.00
10852;BME280;5479;52.046;6.314;2023-07-31T04:47:27;100715.34;;;16.20;100.00
10852;BME280;5479;52.046;6.314;2023-07-31T04:49:56;100713.06;;;16.15;100.00
10852;BME280;5479;52.046;6.314;2023-07-31T04:52:24;100721.06;;;16.15;100.00
10852;BME280;5479;52.046;6.314;2023-07-31T04:54:53;100727.00;;;16.19;100.00
10852;BME280;5479;52.046;6.314;2023-07-31T04:57:21;100712.91;;;16.17;100.00
10852;BME280;5479;52.046;6.314;2023-07-31T04:59:49;100712.66;;;16.20;100.00
10852;BME280;5479;52.046;6.314;2023-07-31T05:02:17;100707.44;;;16.18;100.00
10852;BME280;5479;52.046;6.314;2023-07-31T05:04:45;100702.84;;;16.20;100.00
10852;BME280;5479;52.046;6.314;2023-07-31T05:07:14;100704.66;;;16.20;100.00
10852;BME280;5479;52.046;6.314;2023-07-31T05:09:44;100701.47;;;16.26;100.00
10852;BME280;5479;52.046;6.314;2023-07-31T05:12:12;100701.22;;;16.29;100.00
10852;BME280;5479;52.046;6.314;2023-07-31T05:14:42;100702.63;;;16.33;100.00
10852;BME280;5479;52.046;6.314;2023-07-31T05:17:12;100696.59;;;16.31;100.00
10852;BME280;5479;52.046;6.314;2023-07-31T05:19:40;100698.00;;;16.35;100.00
10852;BME280;5479;52.046;6.314;2023-07-31T05:22:08;100690.59;;;16.39;100.00
10852;BME280;5479;52.046;6.314;2023-07-31T05:24:38;100684.97;;;16.42;100.00
10852;BME280;5479;52.046;6.314;2023-07-31T05:27:06;100673.09;;;16.35;100.00
10852;BME280;5479;52.046;6.314;2023-07-31T05:29:35;100674.56;;;16.39;100.00
10852;BME280;5479;52.046;6.314;2023-07-31T05:32:03;100675.34;;;16.50;100.00
10852;BME280;5479;52.046;6.314;2023-07-31T05:34:34;100668.91;;;16.53;100.00
10852;BME280;5479;52.046;6.314;2023-07-31T05:37:02;100667.81;;;16.55;100.00
10852;BME280;5479;52.046;6.314;2023-07-31T05:39:31;100668.50;;;16.57;100.00
10852;BME280;5479;52.046;6.314;2023-07-31T05:42:00;100669.47;;;16.56;100.00
10852;BME280;5479;52.046;6.314;2023-07-31T05:44:28;100658.97;;;16.64;100.00
10852;BME280;5479;52.046;6.314;2023-07-31T05:46:57;100668.16;;;16.71;100.00
10852;BME280;5479;52.046;6.314;2023-07-31T05:49:25;100676.44;;;16.68;100.00
10852;BME280;5479;52.046;6.314;2023-07-31T05:51:59;100681.81;;;16.68;100.00
10852;BME280;5479;52.046;6.314;2023-07-31T05:54:27;100670.84;;;16.71;100.00
10852;BME280;5479;52.046;6.314;2023-07-31T05:56:55;100671.38;;;16.65;100.00
10852;BME280;5479;52.046;6.314;2023-07-31T05:59:24;100670.31;;;16.57;100.00
10852;BME280;5479;52.046;6.314;2023-07-31T06:01:53;100667.06;;;16.53;100.00
10852;BME280;5479;52.046;6.314;2023-07-31T06:04:21;100659.16;;;16.52;100.00
10852;BME280;5479;52.046;6.314;2023-07-31T06:06:52;100663.34;;;16.45;100.00
10852;BME280;5479;52.046;6.314;2023-07-31T06:09:21;100665.16;;;16.44;100.00
10852;BME280;5479;52.046;6.314;2023-07-31T06:11:49;100668.88;;;16.32;100.00
10852;BME280;5479;52.046;6.314;2023-07-31T06:14:17;100659.63;;;16.36;100.00
10852;BME280;5479;52.046;6.314;2023-07-31T06:16:46;100662.28;;;16.36;100.00
10852;BME280;5479;52.046;6.314;2023-07-31T06:19:14;100663.53;;;16.32;100.00
10852;BME280;5479;52.046;6.314;2023-07-31T06:21:47;100657.91;;;16.35;100.00
10852;BME280;5479;52.046;6.314;2023-07-31T06:24:15;100656.00;;;16.37;100.00
10852;BME280;5479;52.046;6.314;2023-07-31T06:26:46;100657.66;;;16.38;100.00
10852;BME280;5479;52.046;6.314;2023-07-31T06:29:14;100658.19;;;16.32;100.00
10852;BME280;5479;52.046;6.314;2023-07-31T06:31:42;100644.44;;;16.37;100.00
10852;BME280;5479;52.046;6.314;2023-07-31T06:34:13;100653.63;;;16.44;100.00
10852;BME280;5479;52.046;6.314;2023-07-31T06:36:41;100646.19;;;16.47;100.00
10852;BME280;5479;52.046;6.314;2023-07-31T06:39:12;100649.56;;;16.49;100.00
10852;BME280;5479;52.046;6.314;2023-07-31T06:41:40;100651.03;;;16.53;100.00
10852;BME280;5479;52.046;6.314;2023-07-31T06:44:11;100645.41;;;16.56;100.00
10852;BME280;5479;52.046;6.314;2023-07-31T06:46:39;100632.28;;;16.74;100.00
10852;BME280;5479;52.046;6.314;2023-07-31T06:49:13;100631.72;;;16.80;100.00
10852;BME280;5479;52.046;6.314;2023-07-31T06:51:43;100639.66;;;16.91;100.00
10852;BME280;5479;52.046;6.314;2023-07-31T06:54:11;100627.84;;;16.94;100.00
10852;BME280;5479;52.046;6.314;2023-07-31T06:56:39;100623.66;;;17.01;100.00
10852;BME280;5479;52.046;6.314;2023-07-31T06:59:08;100618.59;;;16.98;100.00
10852;BME280;5479;52.046;6.314;2023-07-31T07:01:36;100620.84;;;17.02;100.00
10852;BME280;5479;52.046;6.314;2023-07-31T07:04:04;100623.78;;;16.99;100.00
10852;BME280;5479;52.046;6.314;2023-07-31T07:06:33;100612.97;;;17.01;100.00
10852;BME280;5479;52.046;6.314;2023-07-31T07:09:02;100615.91;;;16.98;100.00
10852;BME280;5479;52.046;6.314;2023-07-31T07:11:31;100613.50;;;16.95;100.00
10852;BME280;5479;52.046;6.314;2023-07-31T07:14:00;100615.75;;;16.99;100.00
10852;BME280;5479;52.046;6.314;2023-07-31T07:16:29;100617.19;;;17.03;100.00
10852;BME280;5479;52.046;6.314;2023-07-31T07:18:57;100608.59;;;17.00;100.00
10852;BME280;5479;52.046;6.314;2023-07-31T07:21:25;100609.88;;;17.05;100.00
10852;BME280;5479;52.046;6.314;2023-07-31T07:23:54;100604.53;;;17.15;100.00
10852;BME280;5479;52.046;6.314;2023-07-31T07:26:22;100597.78;;;17.11;100.00
10852;BME280;5479;52.046;6.314;2023-07-31T07:28:50;100603.41;;;17.08;100.00
10852;BME280;5479;52.046;6.314;2023-07-31T07:31:18;100605.38;;;17.15;100.00
10852;BME280;5479;52.046;6.314;2023-07-31T07:33:49;100606.25;;;17.16;100.00
10852;BME280;5479;52.046;6.314;2023-07-31T07:36:17;100589.09;;;17.28;100.00
10852;BME280;5479;52.046;6.314;2023-07-31T07:38:46;100596.16;;;17.38;100.00
10852;BME280;5479;52.046;6.314;2023-07-31T07:41:15;100590.00;;;17.57;100.00
10852;BME280;5479;52.046;6.314;2023-07-31T07:43:46;100590.28;;;17.73;100.00
10852;BME280;5479;52.046;6.314;2023-07-31T07:46:14;100587.72;;;17.72;100.00
10852;BME280;5479;52.046;6.314;2023-07-31T07:48:42;100583.25;;;17.63;100.00
10852;BME280;5479;52.046;6.314;2023-07-31T07:51:10;100580.13;;;17.58;100.00
10852;BME280;5479;52.046;6.314;2023-07-31T07:53:39;100589.72;;;17.60;100.00
10852;BME280;5479;52.046;6.314;2023-07-31T07:56:08;100582.94;;;17.56;100.00
10852;BME280;5479;52.046;6.314;2023-07-31T07:58:37;100573.38;;;17.54;100.00
10852;BME280;5479;52.046;6.314;2023-07-31T08:01:05;100578.84;;;17.62;100.00
10852;BME280;5479;52.046;6.314;2023-07-31T08:03:35;100583.91;;;17.55;100.00
10852;BME280;5479;52.046;6.314;2023-07-31T08:06:03;100576.13;;;17.42;100.00
10852;BME280;5479;52.046;6.314;2023-07-31T08:08:31;100576.13;;;17.42;100.00
10852;BME280;5479;52.046;6.314;2023-07-31T08:10:59;100572.75;;;17.50;100.00
10852;BME280;5479;52.046;6.314;2023-07-31T08:13:31;100576.44;;;17.49;100.00
10852;BME280;5479;52.046;6.314;2023-07-31T08:16:02;100562.94;;;17.60;100.00
10852;BME280;5479;52.046;6.314;2023-07-31T08:18:30;100556.47;;;17.63;100.00
10852;BME280;5479;52.046;6.314;2023-07-31T08:20:59;100563.78;;;17.70;100.00
10852;BME280;5479;52.046;6.314;2023-07-31T08:23:27;100564.63;;;17.71;100.00
10852;BME280;5479;52.046;6.314;2023-07-31T08:25:57;100554.47;;;17.74;100.00
10852;BME280;5479;52.046;6.314;2023-07-31T08:28:25;100556.72;;;17.69;100.00
10852;BME280;5479;52.046;6.314;2023-07-31T08:30:55;100557.72;;;17.68;100.00
10852;BME280;5479;52.046;6.314;2023-07-31T08:33:24;100559.41;;;17.79;100.00
10852;BME280;5479;52.046;6.314;2023-07-31T08:35:52;100558.97;;;17.83;100.00
10852;BME280;5479;52.046;6.314;2023-07-31T08:38:22;100568.28;;;17.79;100.00
10852;BME280;5479;52.046;6.314;2023-07-31T08:40:52;100561.78;;;17.82;100.00
10852;BME280;5479;52.046;6.314;2023-07-31T08:43:20;100550.25;;;17.81;100.00
10852;BME280;5479;52.046;6.314;2023-07-31T08:45:50;100555.88;;;17.78;100.00
10852;BME280;5479;52.046;6.314;2023-07-31T08:48:21;100552.19;;;17.79;100.00
10852;BME280;5479;52.046;6.314;2023-07-31T08:50:51;100554.72;;;17.90;100.00
10852;BME280;5479;52.046;6.314;2023-07-31T08:53:19;100554.16;;;17.96;100.00
10852;BME280;5479;52.046;6.314;2023-07-31T08:55:48;100552.75;;;17.92;100.00
10852;BME280;5479;52.046;6.314;2023-07-31T08:58:17;100546.28;;;17.95;100.00
10852;BME280;5479;52.046;6.314;2023-07-31T09:00:46;100547.63;;;18.08;100.00
10852;BME280;5479;52.046;6.314;2023-07-31T09:03:18;100548.94;;;18.04;100.00
10852;BME280;5479;52.046;6.314;2023-07-31T09:05:46;100549.50;;;18.08;100.00
10852;BME280;5479;52.046;6.314;2023-07-31T09:08:19;100546.09;;;18.16;100.00
10852;BME280;5479;52.046;6.314;2023-07-31T09:10:48;100543.72;;;18.03;100.00
10852;BME280;5479;52.046;6.314;2023-07-31T09:13:18;100547.06;;;18.15;100.00
10852;BME280;5479;52.046;6.314;2023-07-31T09:15:46;100543.41;;;18.16;100.00
10852;BME280;5479;52.046;6.314;2023-07-31T09:18:14;100537.31;;;18.23;100.00
10852;BME280;5479;52.046;6.314;2023-07-31T09:20:45;100540.69;;;18.25;100.00
10852;BME280;5479;52.046;6.314;2023-07-31T09:23:14;100530.13;;;18.24;100.00
10852;BME280;5479;52.046;6.314;2023-07-31T09:25:45;100538.69;;;18.37;100.00
10852;BME280;5479;52.046;6.314;2023-07-31T09:28:13;100531.72;;;18.44;100.00
10852;BME280;5479;52.046;6.314;2023-07-31T09:30:46;100526.41;;;18.34;100.00
10852;BME280;5479;52.046;6.314;2023-07-31T09:33:15;100526.72;;;18.31;100.00
10852;BME280;5479;52.046;6.314;2023-07-31T09:35:43;100529.50;;;18.39;100.00
10852;BME280;5479;52.046;6.314;2023-07-31T09:38:13;100525.66;;;18.42;100.00
10852;BME280;5479;52.046;6.314;2023-07-31T09:40:42;100531.78;;;18.25;100.00
10852;BME280;5479;52.046;6.314;2023-07-31T09:43:16;100530.13;;;18.24;100.00
10852;BME280;5479;52.046;6.314;2023-07-31T09:45:55;100526.41;;;18.34;100.00
10852;BME280;5479;52.046;6.314;2023-07-31T09:48:26;100521.91;;;18.35;100.00
10852;BME280;5479;52.046;6.314;2023-07-31T09:50:54;100518.31;;;18.44;100.00
10852;BME280;5479;52.046;6.314;2023-07-31T09:53:28;100524.13;;;18.39;100.00
10852;BME280;5479;52.046;6.314;2023-07-31T09:55:58;100521.00;;;18.44;100.00
10852;BME280;5479;52.046;6.314;2023-07-31T09:58:28;100518.50;;;18.33;100.00
10852;BME280;5479;52.046;6.314;2023-07-31T10:00:58;100511.38;;;18.24;100.00
10852;BME280;5479;52.046;6.314;2023-07-31T10:03:27;100515.41;;;18.28;100.00
10852;BME280;5479;52.046;6.314;2023-07-31T10:05:57;100519.09;;;18.27;100.00
10852;BME280;5479;52.046;6.314;2023-07-31T10:08:27;100517.25;;;18.27;100.00
10852;BME280;5479;52.046;6.314;2023-07-31T10:10:59;100519.41;;;18.24;100.00
10852;BME280;5479;52.046;6.314;2023-07-31T10:13:30;100514.91;;;18.15;100.00
10852;BME280;5479;52.046;6.314;2023-07-31T10:16:00;100522.09;;;18.24;100.00
10852;BME280;5479;52.046;6.314;2023-07-31T10:18:28;100524.47;;;18.27;100.00
10852;BME280;5479;52.046;6.314;2023-07-31T10:20:57;100519.94;;;18.27;100.00
10852;BME280;5479;52.046;6.314;2023-07-31T10:23:26;100520.25;;;18.24;100.00
10852;BME280;5479;52.046;6.314;2023-07-31T10:25:55;100528.19;;;18.16;100.00
10852;BME280;5479;52.046;6.314;2023-07-31T10:28:25;100519.53;;;18.22;100.00
10852;BME280;5479;52.046;6.314;2023-07-31T10:30:55;100513.69;;;18.36;100.00
10852;BME280;5479;52.046;6.314;2023-07-31T10:33:23;100514.66;;;18.45;100.00
10852;BME280;5479;52.046;6.314;2023-07-31T10:36:12;100516.47;;;18.54;100.00
10852;BME280;5479;52.046;6.314;2023-07-31T10:38:40;100511.63;;;18.67;100.00
10852;BME280;5479;52.046;6.314;2023-07-31T10:41:09;100503.13;;;18.72;100.00
10852;BME280;5479;52.046;6.314;2023-07-31T10:43:37;100501.38;;;18.80;100.00
10852;BME280;5479;52.046;6.314;2023-07-31T10:46:08;100503.06;;;18.81;100.00
10852;BME280;5479;52.046;6.314;2023-07-31T10:48:37;100506.44;;;18.83;100.00
10852;BME280;5479;52.046;6.314;2023-07-31T10:51:09;100498.63;;;19.07;100.00
10852;BME280;5479;52.046;6.314;2023-07-31T10:53:39;100499.13;;;19.20;100.00
10852;BME280;5479;52.046;6.314;2023-07-31T10:56:09;100489.69;;;19.52;100.00
10852;BME280;5479;52.046;6.314;2023-07-31T10:58:39;100489.75;;;19.60;100.00
10852;BME280;5479;52.046;6.314;2023-07-31T11:01:08;100488.38;;;19.56;100.00
10852;BME280;5479;52.046;6.314;2023-07-31T11:03:44;100489.22;;;19.56;100.00
10852;BME280;5479;52.046;6.314;2023-07-31T11:06:13;100492.22;;;19.71;100.00
10852;BME280;5479;52.046;6.314;2023-07-31T11:08:43;100488.59;;;19.62;100.00
10852;BME280;5479;52.046;6.314;2023-07-31T11:11:12;100497.31;;;19.82;100.00
10852;BME280;5479;52.046;6.314;2023-07-31T11:13:44;100492.94;;;19.81;100.00
10852;BME280;5479;52.046;6.314;2023-07-31T11:16:13;100490.72;;;20.02;100.00
10852;BME280;5479;52.046;6.314;2023-07-31T11:18:43;100479.66;;;20.05;100.00
10852;BME280;5479;52.046;6.314;2023-07-31T11:21:12;100483.25;;;19.88;100.00
10852;BME280;5479;52.046;6.314;2023-07-31T11:23:41;100479.88;;;19.86;100.00
10852;BME280;5479;52.046;6.314;2023-07-31T11:26:09;100491.78;;;20.09;100.00
10852;BME280;5479;52.046;6.314;2023-07-31T11:28:43;100481.09;;;19.92;100.00
10852;BME280;5479;52.046;6.314;2023-07-31T11:31:15;100483.19;;;19.80;100.00
10852;BME280;5479;52.046;6.314;2023-07-31T11:33:43;100486.63;;;19.90;100.00
10852;BME280;5479;52.046;6.314;2023-07-31T11:36:14;100485.72;;;19.81;100.00
10852;BME280;5479;52.046;6.314;2023-07-31T11:38:43;100483.78;;;19.66;100.00
10852;BME280;5479;52.046;6.314;2023-07-31T11:41:14;100481.34;;;19.55;100.00
10852;BME280;5479;52.046;6.314;2023-07-31T11:43:42;100485.97;;;19.45;100.00
10852;BME280;5479;52.046;6.314;2023-07-31T11:46:10;100480.91;;;19.42;100.00
10852;BME280;5479;52.046;6.314;2023-07-31T11:48:40;100487.31;;;19.49;100.00
10852;BME280;5479;52.046;6.314;2023-07-31T11:51:10;100486.94;;;19.44;100.00
10852;BME280;5479;52.046;6.314;2023-07-31T11:53:41;100486.38;;;19.22;100.00
10852;BME280;5479;52.046;6.314;2023-07-31T11:56:12;100484.63;;;19.13;100.00
10852;BME280;5479;52.046;6.314;2023-07-31T11:58:43;100491.44;;;19.08;100.00
10852;BME280;5479;52.046;6.314;2023-07-31T12:01:14;100489.84;;;19.15;100.00
10852;BME280;5479;52.046;6.314;2023-07-31T12:03:45;100482.22;;;19.10;100.00
10852;BME280;5479;52.046;6.314;2023-07-31T12:06:14;100477.31;;;19.23;100.00
10852;BME280;5479;52.046;6.314;2023-07-31T12:08:42;100476.19;;;19.44;100.00
10852;BME280;5479;52.046;6.314;2023-07-31T12:11:10;100477.66;;;19.38;100.00
10852;BME280;5479;52.046;6.314;2023-07-31T12:13:38;100476.03;;;19.45;100.00
10852;BME280;5479;52.046;6.314;2023-07-31T12:16:06;100477.56;;;19.65;100.00
10852;BME280;5479;52.046;6.314;2023-07-31T12:18:35;100475.13;;;19.54;100.00
10852;BME280;5479;52.046;6.314;2023-07-31T12:21:06;100473.28;;;19.55;100.00
10852;BME280;5479;52.046;6.314;2023-07-31T12:23:36;100479.88;;;19.43;100.00
10852;BME280;5479;52.046;6.314;2023-07-31T12:26:05;100480.41;;;19.46;100.00
10852;BME280;5479;52.046;6.314;2023-07-31T12:28:37;100465.97;;;19.65;100.00
10852;BME280;5479;52.046;6.314;2023-07-31T12:31:05;100470.72;;;19.71;100.00
10852;BME280;5479;52.046;6.314;2023-07-31T12:33:35;100460.59;;;19.65;100.00
10852;BME280;5479;52.046;6.314;2023-07-31T12:36:08;100465.09;;;19.82;100.00
10852;BME280;5479;52.046;6.314;2023-07-31T12:38:37;100469.75;;;19.80;100.00
10852;BME280;5479;52.046;6.314;2023-07-31T12:41:05;100466.25;;;19.79;100.00
10852;BME280;5479;52.046;6.314;2023-07-31T12:43:34;100460.06;;;19.61;100.00
10852;BME280;5479;52.046;6.314;2023-07-31T12:46:02;100467.47;;;19.42;100.00
10852;BME280;5479;52.046;6.314;2023-07-31T12:48:31;100472.19;;;19.30;100.00
10852;BME280;5479;52.046;6.314;2023-07-31T12:51:00;100465.38;;;19.36;100.00
10852;BME280;5479;52.046;6.314;2023-07-31T12:53:29;100456.47;;;19.53;100.00
10852;BME280;5479;52.046;6.314;2023-07-31T12:55:57;100450.38;;;19.68;100.00
10852;BME280;5479;52.046;6.314;2023-07-31T12:58:25;100453.88;;;19.61;100.00
10852;BME280;5479;52.046;6.314;2023-07-31T13:00:53;100448.75;;;19.75;100.00
10852;BME280;5479;52.046;6.314;2023-07-31T13:03:21;100431.78;;;19.75;100.00